createdAt,value
2023-01-20T00:00:55.752Z,1004.18
2023-01-20T00:01:55.752Z,1004.22
2023-01-20T00:02:55.813Z,1004.16
2023-01-20T00:03:55.769Z,1004.19
2023-01-20T00:04:55.736Z,1004.19
2023-01-20T00:05:55.717Z,1004.16
2023-01-20T00:06:55.750Z,1004.20
2023-01-20T00:08:04.122Z,1004.21
2023-01-20T00:08:55.707Z,1004.22
2023-01-20T00:09:55.712Z,1004.21
2023-01-20T00:10:55.699Z,1004.24
2023-01-20T00:11:55.689Z,1004.28
2023-01-20T00:13:05.902Z,1004.32
2023-01-20T00:13:55.681Z,1004.29
2023-01-20T00:15:04.083Z,1004.32
2023-01-20T00:15:55.740Z,1004.30
2023-01-20T00:16:55.677Z,1004.30
2023-01-20T00:17:55.669Z,1004.33
2023-01-20T00:18:55.672Z,1004.30
2023-01-20T00:19:55.773Z,1004.31
2023-01-20T00:20:55.634Z,1004.37
2023-01-20T00:22:04.347Z,1004.35
2023-01-20T00:22:55.641Z,1004.32
2023-01-20T00:23:55.636Z,1004.36
2023-01-20T00:24:55.653Z,1004.32
2023-01-20T00:26:07.159Z,1004.31
2023-01-20T00:27:06.213Z,1004.40
2023-01-20T00:28:03.212Z,1004.40
2023-01-20T00:28:55.633Z,1004.40
2023-01-20T00:29:55.599Z,1004.41
2023-01-20T00:30:55.737Z,1004.44
2023-01-20T00:31:55.608Z,1004.45
2023-01-20T00:32:55.607Z,1004.48
2023-01-20T00:33:55.603Z,1004.51
2023-01-20T00:34:55.585Z,1004.52
2023-01-20T00:35:55.587Z,1004.53
2023-01-20T00:36:55.586Z,1004.55
2023-01-20T00:37:55.577Z,1004.54
2023-01-20T00:38:55.568Z,1004.56
2023-01-20T00:39:55.652Z,1004.54
2023-01-20T00:40:55.549Z,1004.53
2023-01-20T00:41:55.556Z,1004.53
2023-01-20T00:42:55.547Z,1004.53
2023-01-20T00:43:55.552Z,1004.57
2023-01-20T00:44:55.551Z,1004.56
2023-01-20T00:45:55.552Z,1004.56
2023-01-20T00:47:04.756Z,1004.54
2023-01-20T00:47:55.509Z,1004.53
2023-01-20T00:48:55.526Z,1004.57
2023-01-20T00:49:55.511Z,1004.55
2023-01-20T00:50:55.530Z,1004.60
2023-01-20T00:51:55.567Z,1004.55
2023-01-20T00:52:55.491Z,1004.61
2023-01-20T00:53:55.565Z,1004.57
2023-01-20T00:54:55.491Z,1004.59
2023-01-20T00:55:55.473Z,1004.56
2023-01-20T00:57:06.822Z,1004.58
2023-01-20T00:57:55.487Z,1004.58
2023-01-20T00:59:04.808Z,1004.57
2023-01-20T00:59:55.757Z,1004.62
2023-01-20T01:00:55.581Z,1004.58
2023-01-20T01:01:55.541Z,1004.62
2023-01-20T01:02:55.469Z,1004.64
2023-01-20T01:03:55.450Z,1004.66
2023-01-20T01:05:04.869Z,1004.67
2023-01-20T01:05:55.434Z,1004.65
2023-01-20T01:06:55.478Z,1004.69
2023-01-20T01:07:55.438Z,1004.72
2023-01-20T01:08:55.416Z,1004.75
2023-01-20T01:10:03.913Z,1004.76
2023-01-20T01:10:55.398Z,1004.77
2023-01-20T01:11:55.591Z,1004.75
2023-01-20T01:12:55.434Z,1004.82
2023-01-20T01:13:55.386Z,1004.81
2023-01-20T01:14:55.384Z,1004.85
2023-01-20T01:16:06.469Z,1004.85
2023-01-20T01:16:57.364Z,1004.82
2023-01-20T01:17:55.378Z,1004.85
2023-01-20T01:18:55.402Z,1004.87
2023-01-20T01:19:55.395Z,1004.85
2023-01-20T01:20:55.358Z,1004.87
2023-01-20T01:22:02.914Z,1004.85
2023-01-20T01:22:55.358Z,1004.86
2023-01-20T01:23:55.355Z,1004.89
2023-01-20T01:24:55.351Z,1004.86
2023-01-20T01:25:55.344Z,1004.94
2023-01-20T01:26:55.339Z,1004.92
2023-01-20T01:27:55.355Z,1004.91
2023-01-20T01:28:55.342Z,1004.91
2023-01-20T01:29:55.332Z,1004.94
2023-01-20T01:30:55.347Z,1004.96
2023-01-20T01:31:55.323Z,1004.95
2023-01-20T01:32:55.310Z,1005.02
2023-01-20T01:33:55.314Z,1005.00
2023-01-20T01:34:55.299Z,1004.95
2023-01-20T01:35:55.313Z,1005.07
2023-01-20T01:36:55.299Z,1005.05
2023-01-20T01:38:04.500Z,1005.07
2023-01-20T01:38:59.115Z,1005.03
2023-01-20T01:39:55.263Z,1005.07
2023-01-20T01:40:55.265Z,1005.10
2023-01-20T01:41:55.266Z,1005.03
2023-01-20T01:42:55.283Z,1005.10
2023-01-20T01:43:55.256Z,1005.12
2023-01-20T01:44:55.264Z,1005.08
2023-01-20T01:45:55.294Z,1005.15
2023-01-20T01:46:55.236Z,1005.14
2023-01-20T01:47:55.247Z,1005.10
2023-01-20T01:48:55.255Z,1005.08
2023-01-20T01:49:55.265Z,1005.11
2023-01-20T01:50:55.222Z,1005.18
2023-01-20T01:51:55.219Z,1005.11
2023-01-20T01:52:55.218Z,1005.16
2023-01-20T01:53:55.220Z,1005.12
2023-01-20T01:55:02.809Z,1005.14
2023-01-20T01:55:55.198Z,1005.18
2023-01-20T01:56:55.215Z,1005.21
2023-01-20T01:58:03.583Z,1005.21
2023-01-20T01:58:55.235Z,1005.22
2023-01-20T01:59:55.218Z,1005.18
2023-01-20T02:00:55.172Z,1005.22
2023-01-20T02:01:55.387Z,1005.23
2023-01-20T02:02:55.183Z,1005.22
2023-01-20T02:03:55.173Z,1005.27
2023-01-20T02:04:55.160Z,1005.27
2023-01-20T02:05:55.173Z,1005.29
2023-01-20T02:06:55.167Z,1005.33
2023-01-20T02:07:55.164Z,1005.30
2023-01-20T02:08:55.158Z,1005.32
2023-01-20T02:09:55.141Z,1005.35
2023-01-20T02:10:55.134Z,1005.36
2023-01-20T02:11:55.142Z,1005.41
2023-01-20T02:12:55.130Z,1005.35
2023-01-20T02:13:55.120Z,1005.45
2023-01-20T02:14:55.131Z,1005.47
2023-01-20T02:15:55.124Z,1005.49
2023-01-20T02:16:55.106Z,1005.48
2023-01-20T02:17:55.133Z,1005.50
2023-01-20T02:18:55.119Z,1005.48
2023-01-20T02:19:55.095Z,1005.47
2023-01-20T02:20:55.291Z,1005.50
2023-01-20T02:21:55.125Z,1005.48
2023-01-20T02:23:03.659Z,1005.47
2023-01-20T02:23:55.071Z,1005.49
2023-01-20T02:24:55.078Z,1005.48
2023-01-20T02:25:55.063Z,1005.57
2023-01-20T02:26:55.058Z,1005.56
2023-01-20T02:27:55.080Z,1005.56
2023-01-20T02:28:55.057Z,1005.61
2023-01-20T02:29:55.073Z,1005.63
2023-01-20T02:30:55.147Z,1005.64
2023-01-20T02:31:55.157Z,1005.64
2023-01-20T02:32:55.039Z,1005.67
2023-01-20T02:33:55.049Z,1005.70
2023-01-20T02:34:55.100Z,1005.73
2023-01-20T02:35:55.039Z,1005.71
2023-01-20T02:36:55.032Z,1005.77
2023-01-20T02:37:55.033Z,1005.77
2023-01-20T02:38:55.031Z,1005.77
2023-01-20T02:39:55.030Z,1005.75
2023-01-20T02:40:55.047Z,1005.82
2023-01-20T02:41:54.986Z,1005.82
2023-01-20T02:42:55.129Z,1005.83
2023-01-20T02:43:55.020Z,1005.79
2023-01-20T02:44:55.070Z,1005.86
2023-01-20T02:45:55.112Z,1005.87
2023-01-20T02:46:55.023Z,1005.87
2023-01-20T02:47:54.995Z,1005.91
2023-01-20T02:48:54.952Z,1005.88
2023-01-20T02:49:54.967Z,1005.87
2023-01-20T02:50:54.986Z,1005.95
2023-01-20T02:51:54.968Z,1005.96
2023-01-20T02:52:54.964Z,1005.94
2023-01-20T02:53:54.954Z,1005.96
2023-01-20T02:54:54.984Z,1006.02
2023-01-20T02:55:54.954Z,1005.96
2023-01-20T02:56:54.939Z,1006.02
2023-01-20T02:57:54.948Z,1006.01
2023-01-20T02:58:54.956Z,1006.01
2023-01-20T02:59:54.930Z,1005.99
2023-01-20T03:00:55.000Z,1006.05
2023-01-20T03:01:55.034Z,1006.09
2023-01-20T03:02:54.916Z,1006.04
2023-01-20T03:03:54.973Z,1006.07
2023-01-20T03:04:54.930Z,1005.99
2023-01-20T03:05:54.929Z,1006.04
2023-01-20T03:06:54.904Z,1006.06
2023-01-20T03:07:54.932Z,1006.05
2023-01-20T03:08:54.929Z,1006.04
2023-01-20T03:09:54.876Z,1006.04
2023-01-20T03:10:54.874Z,1006.07
2023-01-20T03:11:54.925Z,1006.09
2023-01-20T03:12:54.859Z,1006.07
2023-01-20T03:13:54.875Z,1006.10
2023-01-20T03:14:54.900Z,1006.05
2023-01-20T03:15:54.834Z,1006.08
2023-01-20T03:16:54.884Z,1006.09
2023-01-20T03:17:54.848Z,1006.08
2023-01-20T03:18:54.913Z,1006.12
2023-01-20T03:19:54.832Z,1006.11
2023-01-20T03:20:54.893Z,1006.14
2023-01-20T03:21:54.851Z,1006.17
2023-01-20T03:22:54.833Z,1006.18
2023-01-20T03:23:54.839Z,1006.18
2023-01-20T03:24:54.809Z,1006.16
2023-01-20T03:25:54.990Z,1006.17
2023-01-20T03:26:54.821Z,1006.18
2023-01-20T03:27:55.037Z,1006.18
2023-01-20T03:28:54.789Z,1006.18
2023-01-20T03:29:55.015Z,1006.22
2023-01-20T03:30:54.873Z,1006.22
2023-01-20T03:31:54.784Z,1006.22
2023-01-20T03:32:54.782Z,1006.27
2023-01-20T03:33:54.767Z,1006.21
2023-01-20T03:34:54.772Z,1006.21
2023-01-20T03:35:54.748Z,1006.25
2023-01-20T03:36:54.782Z,1006.26
2023-01-20T03:37:54.734Z,1006.23
2023-01-20T03:38:54.756Z,1006.32
2023-01-20T03:39:54.734Z,1006.31
2023-01-20T03:40:54.747Z,1006.29
2023-01-20T03:41:54.763Z,1006.28
2023-01-20T03:42:54.767Z,1006.36
2023-01-20T03:43:54.738Z,1006.33
2023-01-20T03:44:54.702Z,1006.35
2023-01-20T03:45:54.791Z,1006.37
2023-01-20T03:46:54.718Z,1006.38
2023-01-20T03:47:54.728Z,1006.37
2023-01-20T03:48:54.708Z,1006.38
2023-01-20T03:49:54.704Z,1006.38
2023-01-20T03:50:54.719Z,1006.37
2023-01-20T03:51:54.736Z,1006.39
2023-01-20T03:52:54.688Z,1006.39
2023-01-20T03:53:54.702Z,1006.40
2023-01-20T03:54:54.679Z,1006.38
2023-01-20T03:55:54.659Z,1006.38
2023-01-20T03:56:54.679Z,1006.42
2023-01-20T03:57:54.669Z,1006.36
2023-01-20T03:58:54.679Z,1006.42
2023-01-20T03:59:54.672Z,1006.43
2023-01-20T04:00:54.674Z,1006.46
2023-01-20T04:01:54.716Z,1006.46
2023-01-20T04:02:54.660Z,1006.47
2023-01-20T04:03:54.632Z,1006.53
2023-01-20T04:04:54.718Z,1006.52
2023-01-20T04:05:54.643Z,1006.53
2023-01-20T04:06:54.620Z,1006.58
2023-01-20T04:07:54.633Z,1006.57
2023-01-20T04:08:56.623Z,1006.65
2023-01-20T04:09:54.619Z,1006.65
2023-01-20T04:10:54.588Z,1006.62
2023-01-20T04:11:54.638Z,1006.70
2023-01-20T04:12:54.595Z,1006.67
2023-01-20T04:13:54.616Z,1006.68
2023-01-20T04:14:54.595Z,1006.68
2023-01-20T04:15:54.612Z,1006.69
2023-01-20T04:16:54.591Z,1006.75
2023-01-20T04:17:54.593Z,1006.73
2023-01-20T04:18:54.566Z,1006.70
2023-01-20T04:19:54.570Z,1006.77
2023-01-20T04:20:54.545Z,1006.73
2023-01-20T04:21:54.548Z,1006.76
2023-01-20T04:22:54.565Z,1006.79
2023-01-20T04:23:55.559Z,1006.73
2023-01-20T04:24:54.585Z,1006.77
2023-01-20T04:25:54.529Z,1006.80
2023-01-20T04:26:54.527Z,1006.81
2023-01-20T04:27:54.529Z,1006.80
2023-01-20T04:28:54.520Z,1006.81
2023-01-20T04:29:54.575Z,1006.78
2023-01-20T04:30:54.686Z,1006.87
2023-01-20T04:31:54.650Z,1006.82
2023-01-20T04:32:54.521Z,1006.80
2023-01-20T04:33:54.510Z,1006.84
2023-01-20T04:34:54.513Z,1006.85
2023-01-20T04:35:54.483Z,1006.88
2023-01-20T04:36:55.054Z,1006.82
2023-01-20T04:37:54.585Z,1006.85
2023-01-20T04:38:54.467Z,1006.84
2023-01-20T04:39:55.192Z,1006.86
2023-01-20T04:40:54.628Z,1006.87
2023-01-20T04:41:54.528Z,1006.78
2023-01-20T04:42:54.480Z,1006.84
2023-01-20T04:43:56.075Z,1006.84
2023-01-20T04:44:54.544Z,1006.85
2023-01-20T04:45:54.497Z,1006.87
2023-01-20T04:46:54.441Z,1006.89
2023-01-20T04:47:55.072Z,1006.94
2023-01-20T04:48:54.484Z,1006.89
2023-01-20T04:49:54.461Z,1006.92
2023-01-20T04:50:55.582Z,1006.94
2023-01-20T04:51:54.455Z,1006.98
2023-01-20T04:52:54.453Z,1006.97
2023-01-20T04:53:54.396Z,1006.98
2023-01-20T04:54:54.402Z,1006.99
2023-01-20T04:55:54.417Z,1007.02
2023-01-20T04:56:54.383Z,1007.02
2023-01-20T04:57:54.392Z,1007.00
2023-01-20T04:58:55.057Z,1007.00
2023-01-20T04:59:55.054Z,1007.05
2023-01-20T05:00:54.386Z,1007.06
2023-01-20T05:01:54.543Z,1007.05
2023-01-20T05:02:54.366Z,1007.03
2023-01-20T05:03:54.334Z,1007.03
2023-01-20T05:04:54.363Z,1007.10
2023-01-20T05:05:54.352Z,1007.10
2023-01-20T05:06:54.327Z,1007.04
2023-01-20T05:07:54.391Z,1007.05
2023-01-20T05:08:54.334Z,1007.05
2023-01-20T05:09:54.316Z,1007.05
2023-01-20T05:10:54.329Z,1007.13
2023-01-20T05:11:54.328Z,1007.13
2023-01-20T05:12:54.325Z,1007.16
2023-01-20T05:13:54.307Z,1007.20
2023-01-20T05:14:54.353Z,1007.21
2023-01-20T05:15:54.360Z,1007.21
2023-01-20T05:16:54.355Z,1007.27
2023-01-20T05:17:54.830Z,1007.33
2023-01-20T05:18:55.598Z,1007.35
2023-01-20T05:19:54.311Z,1007.31
2023-01-20T05:20:54.279Z,1007.34
2023-01-20T05:21:54.256Z,1007.38
2023-01-20T05:22:54.270Z,1007.39
2023-01-20T05:24:02.891Z,1007.43
2023-01-20T05:24:54.246Z,1007.42
2023-01-20T05:25:54.239Z,1007.40
2023-01-20T05:26:54.266Z,1007.43
2023-01-20T05:27:56.092Z,1007.47
2023-01-20T05:33:26.404Z,1007.49
2023-01-20T05:49:29.300Z,1007.78
2023-01-20T05:50:09.360Z,1007.79
2023-01-20T05:51:09.486Z,1007.78
2023-01-20T05:52:30.255Z,1007.88
2023-01-20T06:02:47.371Z,1007.88
2023-01-20T06:10:17.493Z,1008.03
2023-01-20T06:11:17.729Z,1007.97
2023-01-20T06:13:26.179Z,1008.02
2023-01-20T06:24:02.164Z,1008.20
2023-01-20T06:24:42.820Z,1008.23
2023-01-20T06:26:16.900Z,1008.30
2023-01-20T06:40:23.439Z,1008.45
2023-01-20T06:41:23.648Z,1008.53
2023-01-20T06:42:23.477Z,1008.57
2023-01-20T06:43:25.107Z,1008.59
2023-01-20T06:44:25.587Z,1008.63
2023-01-20T06:47:51.469Z,1008.65
2023-01-20T06:48:28.488Z,1008.66
2023-01-20T07:02:51.695Z,1009.00
2023-01-20T07:06:35.962Z,1009.01
2023-01-20T07:07:35.880Z,1009.02
2023-01-20T07:09:36.934Z,1009.03
2023-01-20T07:27:00.943Z,1009.34
2023-01-20T07:28:00.816Z,1009.32
2023-01-20T07:29:00.832Z,1009.34
2023-01-20T07:34:00.651Z,1009.41
2023-01-20T07:34:41.688Z,1009.44
2023-01-20T07:35:31.916Z,1009.43
2023-01-20T07:42:43.845Z,1009.55
2023-01-20T07:43:41.597Z,1009.56
2023-01-20T07:44:44.348Z,1009.59
2023-01-20T07:47:25.668Z,1009.54
2023-01-20T07:49:17.566Z,1009.60
2023-01-20T07:50:17.490Z,1009.58
2023-01-20T07:54:52.382Z,1009.53
2023-01-20T07:55:51.851Z,1009.48
2023-01-20T07:56:51.673Z,1009.60
2023-01-20T08:01:37.317Z,1009.65
2023-01-20T08:02:34.666Z,1009.66
2023-01-20T08:24:07.326Z,1009.86
2023-01-20T08:30:37.236Z,1009.91
2023-01-20T08:35:21.544Z,1009.98
2023-01-20T08:35:48.302Z,1010.03
2023-01-20T08:36:47.378Z,1009.99
2023-01-20T08:37:50.802Z,1010.11
2023-01-20T08:38:47.373Z,1010.05
2023-01-20T08:39:51.797Z,1010.02
2023-01-20T08:40:50.874Z,1010.05
2023-01-20T08:41:48.172Z,1010.05
2023-01-20T08:42:47.812Z,1010.10
2023-01-20T08:51:38.804Z,1010.12
2023-01-20T09:34:41.321Z,1010.85
2023-01-20T09:53:23.555Z,1011.02
2023-01-20T10:00:12.082Z,1011.04
2023-01-20T10:00:48.541Z,1011.05
2023-01-20T10:18:39.467Z,1011.22
2023-01-20T11:25:00.634Z,1011.40
2023-01-20T11:25:36.867Z,1011.43
2023-01-20T11:34:34.422Z,1011.46
2023-01-20T11:35:34.450Z,1011.48
2023-01-20T11:36:34.378Z,1011.47
2023-01-20T11:37:34.396Z,1011.49
2023-01-20T11:38:34.397Z,1011.51
2023-01-20T11:39:34.699Z,1011.44
2023-01-20T11:40:34.390Z,1011.46
2023-01-20T11:41:34.388Z,1011.45
2023-01-20T11:42:36.690Z,1011.54
2023-01-20T11:43:34.366Z,1011.52
2023-01-20T11:44:34.354Z,1011.47
2023-01-20T11:45:34.347Z,1011.53
2023-01-20T11:46:34.442Z,1011.56
2023-01-20T11:47:34.349Z,1011.54
2023-01-20T11:48:34.338Z,1011.58
2023-01-20T11:49:34.345Z,1011.57
2023-01-20T11:50:34.357Z,1011.59
2023-01-20T11:51:34.347Z,1011.63
2023-01-20T11:52:34.323Z,1011.63
2023-01-20T11:53:34.347Z,1011.60
2023-01-20T11:54:36.988Z,1011.61
2023-01-20T11:55:34.312Z,1011.61
2023-01-20T11:56:34.413Z,1011.60
2023-01-20T11:57:34.340Z,1011.63
2023-01-20T11:58:34.308Z,1011.57
2023-01-20T11:59:34.299Z,1011.59
2023-01-20T12:00:36.403Z,1011.62
2023-01-20T12:01:34.367Z,1011.59
2023-01-20T12:04:10.545Z,1011.56
2023-01-20T12:05:06.326Z,1011.59
2023-01-20T12:06:06.333Z,1011.59
2023-01-20T12:07:06.336Z,1011.61
2023-01-20T12:08:06.322Z,1011.65
2023-01-20T12:09:06.320Z,1011.67
2023-01-20T12:10:06.306Z,1011.68
2023-01-20T12:11:06.326Z,1011.67
2023-01-20T12:12:06.305Z,1011.67
2023-01-20T12:13:06.313Z,1011.76
2023-01-20T12:14:06.321Z,1011.71
2023-01-20T12:15:06.292Z,1011.77
2023-01-20T12:16:06.346Z,1011.76
2023-01-20T12:17:06.296Z,1011.73
2023-01-20T12:18:08.223Z,1011.78
2023-01-20T12:19:06.352Z,1011.75
2023-01-20T12:20:06.276Z,1011.80
2023-01-20T12:21:06.256Z,1011.78
2023-01-20T12:22:06.275Z,1011.80
2023-01-20T12:23:06.284Z,1011.81
2023-01-20T12:24:06.282Z,1011.83
2023-01-20T12:25:06.253Z,1011.86
2023-01-20T12:26:06.265Z,1011.83
2023-01-20T12:27:06.240Z,1011.89
2023-01-20T12:28:06.298Z,1011.87
2023-01-20T12:29:06.235Z,1011.94
2023-01-20T12:36:33.607Z,1012.03
2023-01-20T12:37:14.459Z,1012.01
2023-01-20T12:40:09.156Z,1012.13
2023-01-20T12:40:47.546Z,1012.12
2023-01-20T12:41:47.538Z,1012.08
2023-01-20T12:42:47.570Z,1012.16
2023-01-20T12:43:47.527Z,1012.14
2023-01-20T12:44:47.554Z,1012.14
2023-01-20T12:45:47.609Z,1012.20
2023-01-20T12:46:47.546Z,1012.18
2023-01-20T12:47:47.556Z,1012.24
2023-01-20T12:48:47.521Z,1012.30
2023-01-20T12:49:47.518Z,1012.25
2023-01-20T12:50:47.571Z,1012.30
2023-01-20T12:51:47.511Z,1012.33
2023-01-20T12:52:47.590Z,1012.34
2023-01-20T12:53:47.514Z,1012.33
2023-01-20T12:54:49.118Z,1012.37
2023-01-20T12:55:47.478Z,1012.38
2023-01-20T12:56:47.491Z,1012.35
2023-01-20T12:57:47.548Z,1012.40
2023-01-20T12:58:47.468Z,1012.42
2023-01-20T12:59:47.485Z,1012.39
2023-01-20T13:00:47.527Z,1012.39
2023-01-20T13:01:47.490Z,1012.42
2023-01-20T13:02:47.547Z,1012.43
2023-01-20T13:03:47.536Z,1012.41
2023-01-20T13:04:47.470Z,1012.39
2023-01-20T13:05:47.444Z,1012.46
2023-01-20T13:06:47.476Z,1012.51
2023-01-20T13:07:47.452Z,1012.44
2023-01-20T13:08:47.451Z,1012.49
2023-01-20T13:09:47.718Z,1012.51
2023-01-20T13:10:51.059Z,1012.50
2023-01-20T13:11:47.442Z,1012.57
2023-01-20T13:12:47.430Z,1012.56
2023-01-20T13:13:56.718Z,1012.58
2023-01-20T13:14:47.480Z,1012.60
2023-01-20T13:15:47.412Z,1012.56
2023-01-20T13:16:47.450Z,1012.54
2023-01-20T13:17:47.413Z,1012.56
2023-01-20T13:18:47.403Z,1012.56
2023-01-20T13:19:47.397Z,1012.54
2023-01-20T13:20:47.427Z,1012.60
2023-01-20T13:21:59.399Z,1012.61
2023-01-20T13:22:47.402Z,1012.57
2023-01-20T13:23:47.396Z,1012.55
2023-01-20T13:24:47.414Z,1012.64
2023-01-20T13:25:47.382Z,1012.60
2023-01-20T13:26:47.386Z,1012.59
2023-01-20T13:27:47.782Z,1012.62
2023-01-20T13:28:47.372Z,1012.65
2023-01-20T13:29:47.375Z,1012.64
2023-01-20T13:30:47.561Z,1012.68
2023-01-20T13:31:47.604Z,1012.65
2023-01-20T13:32:47.340Z,1012.68
2023-01-20T13:33:47.344Z,1012.67
2023-01-20T13:34:47.331Z,1012.70
2023-01-20T13:35:47.338Z,1012.70
2023-01-20T13:36:47.327Z,1012.69
2023-01-20T13:37:47.359Z,1012.75
2023-01-20T13:38:47.346Z,1012.72
2023-01-20T13:39:47.333Z,1012.73
2023-01-20T13:40:47.302Z,1012.76
2023-01-20T13:41:47.321Z,1012.76
2023-01-20T13:42:47.453Z,1012.78
2023-01-20T13:43:47.308Z,1012.74
2023-01-20T13:44:47.277Z,1012.80
2023-01-20T13:45:47.312Z,1012.78
2023-01-20T13:46:47.320Z,1012.78
2023-01-20T13:47:47.290Z,1012.77
2023-01-20T13:48:47.313Z,1012.78
2023-01-20T13:49:47.319Z,1012.83
2023-01-20T13:50:47.319Z,1012.84
2023-01-20T13:51:47.265Z,1012.86
2023-01-20T13:52:47.336Z,1012.86
2023-01-20T13:53:47.276Z,1012.82
2023-01-20T13:54:47.287Z,1012.85
2023-01-20T13:55:47.273Z,1012.87
2023-01-20T13:56:47.250Z,1012.86
2023-01-20T13:57:47.253Z,1012.88
2023-01-20T13:58:47.291Z,1012.89
2023-01-20T13:59:47.237Z,1012.85
2023-01-20T14:00:47.233Z,1012.89
2023-01-20T14:01:47.255Z,1012.84
2023-01-20T14:02:47.250Z,1012.86
2023-01-20T14:03:47.234Z,1012.87
2023-01-20T14:04:47.209Z,1012.86
2023-01-20T14:05:47.220Z,1012.89
2023-01-20T14:06:47.254Z,1012.89
2023-01-20T14:07:47.211Z,1012.89
2023-01-20T14:08:47.215Z,1012.88
2023-01-20T14:09:47.198Z,1012.89
2023-01-20T14:10:47.186Z,1012.92
2023-01-20T14:11:47.189Z,1012.88
2023-01-20T14:12:47.175Z,1012.93
2023-01-20T14:13:47.187Z,1012.90
2023-01-20T14:14:47.176Z,1012.90
2023-01-20T14:15:47.329Z,1012.94
2023-01-20T14:16:47.300Z,1012.92
2023-01-20T14:17:47.197Z,1012.94
2023-01-20T14:18:47.161Z,1012.99
2023-01-20T14:19:47.171Z,1012.90
2023-01-20T14:20:47.135Z,1012.98
2023-01-20T14:21:47.152Z,1013.01
2023-01-20T14:22:50.142Z,1012.97
2023-01-20T14:23:47.145Z,1012.98
2023-01-20T14:24:47.145Z,1012.98
2023-01-20T14:25:47.161Z,1013.07
2023-01-20T14:26:47.151Z,1013.10
2023-01-20T14:27:47.133Z,1013.12
2023-01-20T14:28:47.100Z,1013.12
2023-01-20T14:29:47.137Z,1013.14
2023-01-20T14:30:48.762Z,1013.21
2023-01-20T14:31:47.134Z,1013.22
2023-01-20T14:32:47.392Z,1013.25
2023-01-20T14:33:47.150Z,1013.31
2023-01-20T14:34:47.103Z,1013.32
2023-01-20T14:35:47.119Z,1013.32
2023-01-20T14:36:47.089Z,1013.33
2023-01-20T14:37:47.118Z,1013.31
2023-01-20T14:38:56.972Z,1013.35
2023-01-20T14:39:47.070Z,1013.30
2023-01-20T14:40:47.064Z,1013.34
2023-01-20T14:41:47.066Z,1013.29
2023-01-20T14:42:47.042Z,1013.39
2023-01-20T14:43:47.059Z,1013.38
2023-01-20T14:44:47.031Z,1013.39
2023-01-20T14:45:47.041Z,1013.42
2023-01-20T14:46:47.044Z,1013.42
2023-01-20T14:47:47.038Z,1013.38
2023-01-20T14:48:47.032Z,1013.38
2023-01-20T14:49:47.027Z,1013.44
2023-01-20T14:50:47.020Z,1013.47
2023-01-20T14:51:47.020Z,1013.48
2023-01-20T14:52:47.027Z,1013.52
2023-01-20T14:53:47.048Z,1013.51
2023-01-20T14:54:47.052Z,1013.58
2023-01-20T14:55:47.260Z,1013.58
2023-01-20T14:56:46.990Z,1013.58
2023-01-20T14:57:46.989Z,1013.61
2023-01-20T14:58:47.033Z,1013.63
2023-01-20T14:59:47.022Z,1013.63
2023-01-20T15:00:46.990Z,1013.60
2023-01-20T15:01:47.013Z,1013.64
2023-01-20T15:02:49.220Z,1013.64
2023-01-20T15:03:46.986Z,1013.65
2023-01-20T15:04:47.031Z,1013.63
2023-01-20T15:05:46.960Z,1013.72
2023-01-20T15:06:46.970Z,1013.65
2023-01-20T15:07:46.981Z,1013.73
2023-01-20T15:09:04.453Z,1013.73
2023-01-20T15:09:46.952Z,1013.74
2023-01-20T15:10:46.952Z,1013.74
2023-01-20T15:11:48.139Z,1013.72
2023-01-20T15:12:46.928Z,1013.76
2023-01-20T15:13:46.957Z,1013.74
2023-01-20T15:14:46.913Z,1013.70
2023-01-20T15:15:47.066Z,1013.80
2023-01-20T15:16:47.001Z,1013.79
2023-01-20T15:17:46.929Z,1013.82
2023-01-20T15:18:46.897Z,1013.82
2023-01-20T15:19:46.894Z,1013.84
2023-01-20T15:20:46.897Z,1013.85
2023-01-20T15:21:46.917Z,1013.86
2023-01-20T15:22:47.104Z,1013.88
2023-01-20T15:23:46.902Z,1013.89
2023-01-20T15:24:46.881Z,1013.90
2023-01-20T15:25:48.642Z,1013.97
2023-01-20T15:26:47.673Z,1014.05
2023-01-20T15:27:46.883Z,1013.97
2023-01-20T15:28:46.913Z,1014.04
2023-01-20T15:29:46.868Z,1014.01
2023-01-20T15:30:46.888Z,1014.04
2023-01-20T15:31:46.943Z,1014.10
2023-01-20T15:32:46.847Z,1014.10
2023-01-20T15:33:46.846Z,1014.10
2023-01-20T15:34:46.962Z,1014.12
2023-01-20T15:35:46.865Z,1014.10
2023-01-20T15:36:46.851Z,1014.09
2023-01-20T15:37:46.894Z,1014.10
2023-01-20T15:38:46.827Z,1014.08
2023-01-20T15:39:46.827Z,1014.11
2023-01-20T15:40:46.821Z,1014.14
2023-01-20T15:41:46.804Z,1014.12
2023-01-20T15:42:46.813Z,1014.18
2023-01-20T15:43:46.815Z,1014.18
2023-01-20T15:44:46.802Z,1014.16
2023-01-20T15:45:46.790Z,1014.20
2023-01-20T15:46:46.826Z,1014.25
2023-01-20T15:47:46.778Z,1014.24
2023-01-20T15:48:46.837Z,1014.26
2023-01-20T15:49:46.848Z,1014.31
2023-01-20T15:50:46.831Z,1014.36
2023-01-20T15:51:46.763Z,1014.36
2023-01-20T15:52:46.758Z,1014.38
2023-01-20T15:53:46.790Z,1014.38
2023-01-20T15:54:46.766Z,1014.40
2023-01-20T15:55:46.756Z,1014.43
2023-01-20T15:56:46.768Z,1014.45
2023-01-20T15:57:46.766Z,1014.47
2023-01-20T15:58:46.836Z,1014.49
2023-01-20T15:59:46.739Z,1014.45
2023-01-20T16:00:46.731Z,1014.47
2023-01-20T16:01:46.781Z,1014.54
2023-01-20T16:02:46.841Z,1014.53
2023-01-20T16:03:46.927Z,1014.55
2023-01-20T16:04:46.753Z,1014.59
2023-01-20T16:05:46.750Z,1014.58
2023-01-20T16:06:46.754Z,1014.61
2023-01-20T16:07:46.702Z,1014.62
2023-01-20T16:08:46.806Z,1014.65
2023-01-20T16:09:46.786Z,1014.68
2023-01-20T16:10:46.685Z,1014.72
2023-01-20T16:11:46.709Z,1014.72
2023-01-20T16:12:46.686Z,1014.72
2023-01-20T16:13:46.709Z,1014.76
2023-01-20T16:14:46.683Z,1014.71
2023-01-20T16:15:46.798Z,1014.79
2023-01-20T16:16:46.674Z,1014.79
2023-01-20T16:17:46.667Z,1014.83
2023-01-20T16:18:46.651Z,1014.82
2023-01-20T16:19:46.817Z,1014.83
2023-01-20T16:20:46.643Z,1014.85
2023-01-20T16:21:46.653Z,1014.85
2023-01-20T16:22:46.648Z,1014.85
2023-01-20T16:23:46.634Z,1014.83
2023-01-20T16:24:46.663Z,1014.84
2023-01-20T16:25:46.633Z,1014.84
2023-01-20T16:26:46.619Z,1014.83
2023-01-20T16:27:46.634Z,1014.87
2023-01-20T16:28:46.600Z,1014.87
2023-01-20T16:29:46.592Z,1014.89
2023-01-20T16:30:46.643Z,1014.89
2023-01-20T16:31:46.634Z,1014.89
2023-01-20T16:32:46.706Z,1014.94
2023-01-20T16:33:46.591Z,1014.97
2023-01-20T16:34:46.612Z,1014.98
2023-01-20T16:35:46.568Z,1015.00
2023-01-20T16:36:46.596Z,1014.97
2023-01-20T16:37:46.566Z,1015.01
2023-01-20T16:38:46.672Z,1014.97
2023-01-20T16:39:46.580Z,1015.00
2023-01-20T16:40:46.553Z,1014.98
2023-01-20T16:41:46.560Z,1015.04
2023-01-20T16:42:46.562Z,1015.06
2023-01-20T16:43:46.546Z,1015.08
2023-01-20T16:44:46.547Z,1015.12
2023-01-20T16:45:46.569Z,1015.11
2023-01-20T16:46:46.526Z,1015.12
2023-01-20T16:47:46.528Z,1015.15
2023-01-20T16:48:46.531Z,1015.15
2023-01-20T16:49:46.530Z,1015.21
2023-01-20T16:50:46.536Z,1015.19
2023-01-20T16:51:46.602Z,1015.24
2023-01-20T16:52:46.497Z,1015.23
2023-01-20T16:53:46.517Z,1015.25
2023-01-20T16:54:46.488Z,1015.26
2023-01-20T16:55:46.484Z,1015.27
2023-01-20T16:56:46.490Z,1015.29
2023-01-20T16:57:46.493Z,1015.29
2023-01-20T16:58:46.476Z,1015.28
2023-01-20T16:59:46.481Z,1015.30
2023-01-20T17:00:46.493Z,1015.33
2023-01-20T17:01:46.488Z,1015.37
2023-01-20T17:02:46.445Z,1015.39
2023-01-20T17:03:46.448Z,1015.35
2023-01-20T17:04:46.447Z,1015.39
2023-01-20T17:05:46.433Z,1015.40
2023-01-20T17:06:46.427Z,1015.45
2023-01-20T17:07:46.443Z,1015.43
2023-01-20T17:08:46.432Z,1015.49
2023-01-20T17:09:46.438Z,1015.48
2023-01-20T17:10:46.461Z,1015.46
2023-01-20T17:11:46.393Z,1015.44
2023-01-20T17:12:48.831Z,1015.51
2023-01-20T17:13:46.402Z,1015.51
2023-01-20T17:14:46.399Z,1015.49
2023-01-20T17:15:46.399Z,1015.50
2023-01-20T17:16:46.404Z,1015.53
2023-01-20T17:17:46.369Z,1015.50
2023-01-20T17:18:46.431Z,1015.54
2023-01-20T17:19:46.357Z,1015.50
2023-01-20T17:20:46.353Z,1015.56
2023-01-20T17:21:46.381Z,1015.57